createdAt,value
2023-03-14T00:01:21.177Z,9.60
2023-03-14T00:03:49.279Z,9.60
2023-03-14T00:06:18.590Z,9.60
2023-03-14T00:08:47.104Z,9.70
2023-03-14T00:11:16.891Z,9.70
2023-03-14T00:13:51.210Z,9.80
2023-03-14T00:16:21.624Z,9.90
2023-03-14T00:18:49.610Z,10.00
2023-03-14T00:21:17.814Z,9.90
2023-03-14T00:23:46.048Z,10.00
2023-03-14T00:26:16.423Z,9.90
2023-03-14T00:28:45.225Z,10.00
2023-03-14T00:31:14.864Z,10.00
2023-03-14T00:33:44.715Z,10.10
2023-03-14T00:36:15.031Z,10.10
2023-03-14T00:38:44.386Z,10.10
2023-03-14T00:41:14.571Z,10.00
2023-03-14T00:43:42.707Z,10.10
2023-03-14T00:46:11.437Z,10.10
2023-03-14T00:48:39.645Z,10.00
2023-03-14T00:51:12.203Z,10.00
2023-03-14T00:53:41.478Z,9.90
2023-03-14T00:56:12.396Z,9.90
2023-03-14T00:58:40.741Z,10.00
2023-03-14T01:01:09.722Z,10.00
2023-03-14T01:03:38.137Z,10.00
2023-03-14T01:06:12.651Z,10.10
2023-03-14T01:08:40.659Z,10.00
2023-03-14T01:11:10.818Z,10.00
2023-03-14T01:13:38.948Z,9.90
2023-03-14T01:16:09.367Z,10.00
2023-03-14T01:18:38.057Z,10.10
2023-03-14T01:21:13.120Z,10.00
2023-03-14T01:23:41.025Z,10.10
2023-03-14T01:26:11.185Z,10.20
2023-03-14T01:28:39.372Z,10.00
2023-03-14T01:31:09.059Z,10.00
2023-03-14T01:33:37.318Z,10.10
2023-03-14T01:36:08.782Z,10.00
2023-03-14T01:38:39.521Z,10.00
2023-03-14T01:41:08.891Z,10.00
2023-03-14T01:43:36.819Z,10.10
2023-03-14T01:46:21.954Z,10.10
2023-03-14T01:48:55.843Z,10.00
2023-03-14T01:51:28.853Z,9.90
2023-03-14T01:54:04.685Z,10.00
2023-03-14T01:56:33.445Z,10.00
2023-03-14T01:59:03.072Z,10.00
2023-03-14T02:01:31.560Z,9.90
2023-03-14T02:04:04.903Z,10.00
2023-03-14T02:06:40.101Z,10.00
2023-03-14T02:09:09.373Z,10.10
2023-03-14T02:11:37.361Z,10.10
2023-03-14T02:14:06.885Z,10.10
2023-03-14T02:16:36.116Z,10.10
2023-03-14T02:19:05.891Z,10.10
2023-03-14T02:21:47.098Z,10.10
2023-03-14T02:24:23.800Z,10.20
2023-03-14T02:27:11.187Z,10.10
2023-03-14T02:29:45.219Z,10.10
2023-03-14T02:32:13.696Z,10.10
2023-03-14T02:34:44.356Z,10.10
2023-03-14T02:37:13.276Z,10.00
2023-03-14T02:39:45.489Z,10.00
2023-03-14T02:42:15.518Z,10.00
2023-03-14T02:44:54.937Z,10.00
2023-03-14T02:47:28.612Z,9.90
2023-03-14T02:50:04.531Z,9.90
2023-03-14T02:52:32.604Z,10.00
2023-03-14T02:55:00.585Z,10.00
2023-03-14T02:57:29.933Z,9.90
2023-03-14T03:00:01.334Z,9.90
2023-03-14T03:02:29.864Z,10.00
2023-03-14T03:04:57.750Z,10.00
2023-03-14T03:07:25.695Z,9.90
2023-03-14T03:09:53.671Z,9.90
2023-03-14T03:12:21.617Z,10.00
2023-03-14T03:14:50.907Z,10.00
2023-03-14T03:17:18.893Z,10.00
2023-03-14T03:19:46.800Z,9.90
2023-03-14T03:22:14.685Z,9.80
2023-03-14T03:24:42.675Z,9.90
2023-03-14T03:27:10.519Z,9.90
2023-03-14T03:29:38.436Z,9.90
2023-03-14T03:32:07.826Z,9.90
2023-03-14T03:34:36.068Z,9.90
2023-03-14T03:37:03.964Z,9.80
2023-03-14T03:39:31.841Z,9.90
2023-03-14T03:41:59.741Z,9.90
2023-03-14T03:44:27.606Z,9.90
2023-03-14T03:46:55.518Z,9.80
2023-03-14T03:49:37.903Z,9.80
2023-03-14T03:52:05.827Z,9.80
2023-03-14T03:54:33.889Z,9.90
2023-03-14T03:57:01.764Z,9.90
2023-03-14T03:59:29.950Z,9.90
2023-03-14T04:01:57.836Z,9.90
2023-03-14T04:04:27.331Z,10.00
2023-03-14T04:06:55.237Z,9.90
2023-03-14T04:09:23.127Z,9.80
2023-03-14T04:11:51.018Z,9.80
2023-03-14T04:14:19.091Z,9.90
2023-03-14T04:16:46.971Z,9.90
2023-03-14T04:19:15.001Z,9.90
2023-03-14T04:21:45.825Z,9.80
2023-03-14T04:24:13.784Z,9.90
2023-03-14T04:26:41.929Z,9.90
2023-03-14T04:29:11.504Z,9.80
2023-03-14T04:31:40.256Z,9.90
2023-03-14T04:34:08.316Z,9.70
2023-03-14T04:36:38.485Z,9.80
2023-03-14T04:39:08.965Z,9.90
2023-03-14T04:41:36.906Z,9.80
2023-03-14T04:44:04.796Z,9.70
2023-03-14T04:46:32.763Z,9.70
2023-03-14T04:49:00.708Z,9.80
2023-03-14T04:51:28.953Z,9.70
2023-03-14T04:53:56.863Z,9.60
2023-03-14T04:56:26.430Z,9.60
2023-03-14T04:58:54.352Z,9.70
2023-03-14T05:01:22.332Z,9.70
2023-03-14T05:03:50.274Z,9.70
2023-03-14T05:06:18.195Z,9.70
2023-03-14T05:08:46.116Z,9.70
2023-03-14T05:11:14.070Z,9.70
2023-03-14T05:13:43.449Z,9.70
2023-03-14T05:16:12.902Z,9.70
2023-03-14T05:18:40.957Z,9.60
2023-03-14T05:21:09.050Z,9.60
2023-03-14T05:23:36.949Z,9.60
2023-03-14T05:26:04.892Z,9.60
2023-03-14T05:28:32.753Z,9.70
2023-03-14T05:31:02.017Z,9.60
2023-03-14T05:33:29.987Z,9.60
2023-03-14T05:35:57.936Z,9.60
2023-03-14T05:38:25.962Z,9.60
2023-03-14T05:40:54.103Z,9.50
2023-03-14T05:43:22.183Z,9.50
2023-03-14T05:45:50.217Z,9.50
2023-03-14T05:48:19.832Z,9.60
2023-03-14T05:50:47.778Z,9.50
2023-03-14T05:53:16.370Z,9.50
2023-03-14T05:55:44.282Z,9.60
2023-03-14T05:58:12.383Z,9.70
2023-03-14T06:00:40.483Z,9.60
2023-03-14T06:03:08.465Z,9.50
2023-03-14T06:05:37.789Z,9.60
2023-03-14T06:08:06.290Z,9.60
2023-03-14T06:10:34.358Z,9.60
2023-03-14T06:13:02.275Z,9.50
2023-03-14T06:15:30.277Z,9.50
2023-03-14T06:17:58.667Z,9.50
2023-03-14T06:20:26.677Z,9.50
2023-03-14T06:22:59.365Z,9.50
2023-03-14T06:25:27.294Z,9.60
2023-03-14T06:27:55.212Z,9.50
2023-03-14T06:30:23.354Z,9.50
2023-03-14T06:32:51.491Z,9.60
2023-03-14T06:35:19.649Z,9.60
2023-03-14T06:37:47.583Z,9.50
2023-03-14T06:40:18.938Z,9.50
2023-03-14T06:42:47.010Z,9.50
2023-03-14T06:45:15.528Z,9.50
2023-03-14T06:47:43.574Z,9.60
2023-03-14T06:50:12.416Z,9.60
2023-03-14T06:52:42.165Z,9.60
2023-03-14T06:55:10.712Z,9.60
2023-03-14T06:57:40.001Z,9.50
2023-03-14T07:00:09.769Z,9.60
2023-03-14T07:02:42.995Z,9.70
2023-03-14T07:05:12.166Z,9.70
2023-03-14T07:07:40.357Z,9.70
2023-03-14T07:10:09.665Z,9.70
2023-03-14T07:12:39.140Z,9.70
2023-03-14T07:15:18.098Z,9.70
2023-03-14T07:17:48.958Z,9.80
2023-03-14T07:20:17.065Z,9.90
2023-03-14T07:22:44.954Z,9.90
2023-03-14T07:25:13.126Z,9.80
2023-03-14T07:27:44.704Z,9.80
2023-03-14T07:30:14.248Z,9.80
2023-03-14T07:32:42.372Z,9.80
2023-03-14T07:35:11.312Z,9.80
2023-03-14T07:37:39.517Z,9.80
2023-03-14T07:40:11.645Z,9.80
2023-03-14T07:42:39.610Z,9.80
2023-03-14T07:45:10.452Z,9.80
2023-03-14T07:47:38.578Z,9.90
2023-03-14T07:50:07.935Z,9.90
2023-03-14T07:52:35.931Z,9.80
2023-03-14T07:55:03.918Z,9.80
2023-03-14T07:57:31.936Z,9.80
2023-03-14T07:59:59.876Z,9.80
2023-03-14T08:02:29.288Z,9.90
2023-03-14T08:04:57.423Z,9.80
2023-03-14T08:07:25.573Z,9.80
2023-03-14T08:09:53.518Z,9.70
2023-03-14T08:12:21.591Z,9.70
2023-03-14T08:14:49.633Z,9.70
2023-03-14T08:17:17.664Z,9.80
2023-03-14T08:19:46.983Z,9.80
2023-03-14T08:22:15.724Z,9.90
2023-03-14T08:24:44.292Z,9.90
2023-03-14T08:27:12.271Z,10.00
2023-03-14T08:29:42.564Z,10.10
2023-03-14T08:32:10.724Z,10.10
2023-03-14T08:34:39.878Z,10.20
2023-03-14T08:37:19.891Z,10.60
2023-03-14T08:39:54.046Z,10.80
2023-03-14T08:42:22.100Z,10.90
2023-03-14T08:44:50.044Z,10.80
2023-03-14T08:47:17.976Z,10.80
2023-03-14T08:49:46.007Z,10.90
2023-03-14T08:52:17.210Z,11.10
2023-03-14T08:54:46.058Z,11.20
2023-03-14T08:57:14.037Z,11.40
2023-03-14T08:59:41.916Z,11.30
2023-03-14T09:02:13.415Z,11.40
2023-03-14T09:04:41.715Z,11.30
2023-03-14T09:07:09.666Z,11.00
2023-03-14T09:09:39.210Z,11.00
2023-03-14T09:12:07.532Z,10.60
2023-03-14T09:14:35.784Z,10.60
2023-03-14T09:17:04.785Z,10.50
2023-03-14T09:19:32.699Z,10.60
2023-03-14T09:22:00.603Z,10.60
2023-03-14T09:24:28.578Z,10.60
2023-03-14T09:26:58.884Z,10.50
2023-03-14T09:29:27.194Z,10.40
2023-03-14T09:31:55.246Z,10.50
2023-03-14T09:34:23.303Z,10.40
2023-03-14T09:36:51.229Z,10.40
2023-03-14T09:39:19.205Z,10.50
2023-03-14T09:41:50.649Z,10.50
2023-03-14T09:44:26.315Z,10.50
2023-03-14T09:46:58.318Z,10.60
2023-03-14T09:49:29.874Z,10.50
2023-03-14T09:52:04.041Z,10.60
2023-03-14T09:54:38.394Z,10.70
2023-03-14T09:57:08.074Z,10.70
2023-03-14T09:59:38.007Z,10.70
2023-03-14T10:02:16.657Z,10.70
2023-03-14T10:04:46.946Z,10.70
2023-03-14T10:07:17.298Z,10.70
2023-03-14T10:09:46.602Z,10.60
2023-03-14T10:12:15.065Z,10.70
2023-03-14T10:14:50.984Z,10.80
2023-03-14T10:17:21.239Z,10.80
2023-03-14T10:19:58.142Z,10.80
2023-03-14T10:22:29.959Z,10.90
2023-03-14T10:25:00.365Z,10.80
2023-03-14T10:27:33.782Z,10.90
2023-03-14T10:30:05.707Z,11.00
2023-03-14T10:35:20.814Z,10.90
2023-03-14T10:37:55.463Z,10.80
2023-03-14T10:40:30.530Z,10.90
2023-03-14T10:43:01.616Z,10.90
2023-03-14T10:45:41.257Z,10.90
2023-03-14T10:48:23.158Z,10.90
2023-03-14T10:50:56.983Z,10.80
2023-03-14T10:53:28.829Z,10.80
2023-03-14T10:56:00.035Z,10.80
2023-03-14T10:58:32.639Z,10.80
2023-03-14T11:01:15.544Z,10.80
2023-03-14T11:03:49.755Z,10.80
2023-03-14T11:06:25.839Z,10.80
2023-03-14T11:08:59.854Z,10.80
2023-03-14T11:11:31.470Z,10.80
2023-03-14T11:14:11.184Z,10.80
2023-03-14T11:16:54.389Z,10.90
2023-03-14T11:19:50.613Z,10.90
2023-03-14T11:22:26.428Z,11.10
2023-03-14T11:25:14.663Z,11.20
2023-03-14T11:27:45.539Z,11.10
2023-03-14T11:30:21.761Z,11.20
2023-03-14T11:33:01.328Z,11.20
2023-03-14T11:35:32.804Z,11.20
2023-03-14T11:38:11.557Z,11.20
2023-03-14T11:40:43.763Z,11.30
2023-03-14T11:43:21.745Z,11.30
2023-03-14T11:45:52.313Z,11.20
2023-03-14T11:48:32.358Z,11.00
2023-03-14T11:51:04.643Z,10.70
2023-03-14T11:53:52.352Z,10.80
2023-03-14T11:56:26.675Z,10.90
2023-03-14T11:59:14.868Z,10.60
2023-03-14T12:01:56.641Z,9.90
2023-03-14T12:04:41.200Z,9.40
2023-03-14T12:07:17.445Z,9.20
2023-03-14T12:09:48.123Z,9.30
2023-03-14T12:12:21.350Z,9.40
2023-03-14T12:14:57.054Z,9.60
2023-03-14T12:17:28.584Z,9.50
2023-03-14T12:20:08.225Z,9.50
2023-03-14T12:22:38.518Z,9.70
2023-03-14T12:25:16.857Z,9.90
2023-03-14T12:27:51.668Z,10.00
2023-03-14T12:30:28.348Z,10.20
2023-03-14T12:33:23.874Z,10.50
2023-03-14T12:35:59.145Z,10.60
2023-03-14T12:38:33.978Z,10.80
2023-03-14T12:41:08.466Z,10.60
2023-03-14T12:43:38.333Z,10.50
2023-03-14T12:46:17.585Z,10.20
2023-03-14T12:48:47.795Z,10.10
2023-03-14T12:51:19.069Z,9.80
2023-03-14T12:54:08.746Z,9.60
2023-03-14T12:56:53.435Z,9.70
2023-03-14T12:59:32.792Z,9.60
2023-03-14T13:02:04.444Z,9.60
2023-03-14T13:04:40.083Z,9.60
2023-03-14T13:07:14.175Z,9.50
2023-03-14T13:10:03.041Z,9.50
2023-03-14T13:12:38.711Z,9.60
2023-03-14T13:15:19.301Z,9.70
2023-03-14T13:17:50.218Z,9.80
2023-03-14T13:20:24.258Z,9.90
2023-03-14T13:22:53.587Z,9.70
2023-03-14T13:25:23.027Z,9.90
2023-03-14T13:27:56.768Z,10.00
2023-03-14T13:30:27.606Z,9.90
2023-03-14T13:32:59.390Z,10.10
2023-03-14T13:35:31.546Z,10.30
2023-03-14T13:38:11.656Z,10.20
2023-03-14T13:40:44.770Z,10.40
2023-03-14T13:43:19.591Z,10.90
2023-03-14T13:45:51.894Z,10.90
2023-03-14T13:48:20.869Z,10.90
2023-03-14T13:50:53.868Z,10.40
2023-03-14T13:53:24.001Z,10.50
2023-03-14T13:55:54.011Z,10.50
2023-03-14T13:58:25.689Z,10.20
2023-03-14T14:01:16.599Z,10.40
2023-03-14T14:03:50.255Z,10.10
2023-03-14T14:06:28.365Z,9.80
2023-03-14T14:08:59.169Z,9.60
2023-03-14T14:11:48.467Z,9.70
2023-03-14T14:14:21.533Z,9.40
2023-03-14T14:16:53.441Z,9.00
2023-03-14T14:19:23.481Z,9.00
2023-03-14T14:21:52.871Z,8.70
2023-03-14T14:24:25.388Z,8.30
2023-03-14T14:26:54.599Z,8.30
2023-03-14T14:29:28.616Z,7.90
2023-03-14T14:32:04.674Z,7.80
2023-03-14T14:34:43.853Z,7.90
2023-03-14T14:37:27.836Z,7.50
2023-03-14T14:40:00.273Z,6.70
2023-03-14T14:42:31.384Z,6.40
2023-03-14T14:45:00.881Z,6.10
2023-03-14T14:47:31.048Z,5.90
2023-03-14T14:50:02.811Z,6.00
2023-03-14T14:52:44.411Z,5.90
2023-03-14T14:55:20.239Z,5.90
2023-03-14T14:57:53.331Z,5.90
2023-03-14T15:00:23.731Z,5.80
2023-03-14T15:02:55.507Z,5.90
2023-03-14T15:05:25.929Z,6.00
2023-03-14T15:07:54.497Z,5.70
2023-03-14T15:10:27.079Z,5.50
2023-03-14T15:12:55.218Z,5.50
2023-03-14T15:15:23.323Z,5.40
2023-03-14T15:17:51.296Z,5.40
2023-03-14T15:20:20.659Z,5.30
2023-03-14T15:22:49.012Z,5.30
2023-03-14T15:25:39.977Z,5.60
2023-03-14T15:28:14.278Z,5.40
2023-03-14T15:30:42.408Z,5.40
2023-03-14T15:33:10.497Z,5.50
2023-03-14T15:35:39.160Z,5.50
2023-03-14T15:38:07.879Z,5.50
2023-03-14T15:40:36.480Z,5.60
2023-03-14T15:43:08.557Z,5.50
2023-03-14T15:45:38.131Z,5.40
2023-03-14T15:48:06.764Z,5.50
2023-03-14T15:50:35.649Z,5.40
2023-03-14T15:53:04.197Z,5.30
2023-03-14T15:55:32.268Z,5.30
2023-03-14T15:58:03.312Z,5.30
2023-03-14T16:00:35.966Z,5.10
2023-03-14T16:03:04.945Z,5.20
2023-03-14T16:05:33.022Z,5.30
2023-03-14T16:08:02.252Z,5.20
2023-03-14T16:10:30.837Z,5.30
2023-03-14T16:12:59.336Z,5.30
2023-03-14T16:15:27.867Z,5.20
2023-03-14T16:17:58.039Z,5.30
2023-03-14T16:20:35.775Z,5.40
2023-03-14T16:23:13.855Z,5.40
2023-03-14T16:25:41.889Z,5.30
2023-03-14T16:28:11.630Z,5.30
2023-03-14T16:30:40.502Z,5.30
2023-03-14T16:33:12.678Z,5.30
2023-03-14T16:35:41.206Z,5.30
2023-03-14T16:38:09.804Z,5.30
2023-03-14T16:40:37.939Z,5.20
2023-03-14T16:43:18.708Z,5.20
2023-03-14T16:45:47.267Z,5.20
2023-03-14T16:48:17.019Z,5.20
2023-03-14T16:50:45.105Z,5.20
2023-03-14T16:53:13.116Z,5.10
2023-03-14T16:55:43.959Z,5.00
2023-03-14T16:58:12.637Z,4.90
2023-03-14T17:00:40.814Z,4.90
2023-03-14T17:03:09.278Z,4.80
2023-03-14T17:05:39.345Z,4.80
2023-03-14T17:08:07.570Z,4.80
2023-03-14T17:10:38.135Z,4.80
2023-03-14T17:13:07.580Z,4.80
2023-03-14T17:15:36.900Z,4.80
2023-03-14T17:18:05.532Z,4.80
2023-03-14T17:20:34.008Z,4.80
2023-03-14T17:23:03.648Z,4.80
2023-03-14T17:25:31.713Z,4.80
2023-03-14T17:27:59.902Z,4.90
2023-03-14T17:30:28.451Z,4.80
2023-03-14T17:32:58.568Z,4.70
2023-03-14T17:35:26.790Z,4.70
2023-03-14T17:37:56.884Z,4.70
2023-03-14T17:40:28.053Z,4.60
2023-03-14T17:42:58.737Z,4.60
2023-03-14T17:45:27.106Z,4.70
2023-03-14T17:47:55.150Z,4.60
2023-03-14T17:50:23.560Z,4.40
2023-03-14T17:52:51.815Z,4.30
2023-03-14T17:55:20.394Z,4.20
2023-03-14T17:57:49.948Z,4.10
2023-03-14T18:00:19.837Z,4.10
2023-03-14T18:02:48.051Z,3.90
2023-03-14T18:05:16.313Z,3.70
2023-03-14T18:07:44.793Z,3.60
2023-03-14T18:10:14.636Z,3.50
2023-03-14T18:12:42.831Z,3.50
2023-03-14T18:15:14.547Z,3.50
2023-03-14T18:17:42.710Z,3.50
2023-03-14T18:20:13.033Z,3.50
2023-03-14T18:22:42.550Z,3.50
2023-03-14T18:25:12.181Z,3.40
2023-03-14T18:27:40.252Z,3.50
2023-03-14T18:30:11.101Z,3.60
2023-03-14T18:32:41.221Z,3.60
2023-03-14T18:35:10.770Z,3.70
2023-03-14T18:37:39.924Z,3.60
2023-03-14T18:40:13.585Z,3.70
2023-03-14T18:42:42.058Z,3.70
2023-03-14T18:45:11.282Z,3.90
2023-03-14T18:47:39.492Z,3.80
2023-03-14T18:50:10.864Z,3.80
2023-03-14T18:52:39.020Z,3.90
2023-03-14T18:55:08.142Z,3.90
2023-03-14T18:57:36.432Z,3.90
2023-03-14T19:00:07.303Z,3.90
2023-03-14T19:02:35.777Z,3.90
2023-03-14T19:05:04.247Z,3.90
2023-03-14T19:07:34.529Z,3.90
2023-03-14T19:10:03.322Z,3.90
2023-03-14T19:12:33.467Z,3.90
2023-03-14T19:15:04.893Z,3.90
2023-03-14T19:17:33.691Z,3.80
2023-03-14T19:20:02.110Z,3.90
2023-03-14T19:22:32.412Z,3.80
2023-03-14T19:25:02.186Z,3.80
2023-03-14T19:27:35.683Z,3.80
2023-03-14T19:30:04.353Z,3.90
2023-03-14T19:32:33.774Z,4.00
2023-03-14T19:35:04.914Z,4.10
2023-03-14T19:37:35.018Z,4.10
2023-03-14T19:40:07.367Z,4.10
2023-03-14T19:42:38.310Z,4.10
2023-03-14T19:45:10.330Z,4.10
2023-03-14T19:47:39.504Z,4.10
2023-03-14T19:50:09.123Z,4.00
2023-03-14T19:52:44.882Z,3.90
2023-03-14T19:55:15.434Z,3.90
2023-03-14T19:57:44.443Z,3.90
2023-03-14T20:00:17.060Z,3.90
2023-03-14T20:02:45.646Z,3.90
2023-03-14T20:05:14.914Z,3.80
2023-03-14T20:07:45.446Z,3.80
2023-03-14T20:10:17.402Z,3.80
2023-03-14T20:12:45.963Z,3.70
2023-03-14T20:15:18.478Z,3.70
2023-03-14T20:17:46.926Z,3.70
2023-03-14T20:20:15.435Z,3.60
2023-03-14T20:22:44.207Z,3.70
2023-03-14T20:25:16.555Z,3.70
2023-03-14T20:27:44.787Z,3.70
2023-03-14T20:30:14.885Z,3.70
2023-03-14T20:32:43.701Z,3.70
2023-03-14T20:35:13.551Z,3.70
2023-03-14T20:37:42.653Z,3.70
2023-03-14T20:40:13.429Z,3.70
2023-03-14T20:42:43.033Z,3.80
2023-03-14T20:45:11.891Z,3.90
2023-03-14T20:47:40.308Z,3.90
2023-03-14T20:50:10.052Z,3.90
2023-03-14T20:52:38.163Z,3.90
2023-03-14T20:55:07.084Z,3.90
2023-03-14T20:57:35.201Z,4.00
2023-03-14T21:00:07.788Z,4.00
2023-03-14T21:02:36.437Z,4.00
2023-03-14T21:05:05.156Z,4.00
2023-03-14T21:07:36.986Z,4.00
2023-03-14T21:10:05.402Z,3.90
2023-03-14T21:12:33.673Z,3.90
2023-03-14T21:15:01.847Z,3.80
2023-03-14T21:17:31.344Z,3.80
2023-03-14T21:19:59.640Z,3.80
2023-03-14T21:22:29.653Z,3.70
2023-03-14T21:24:57.869Z,3.80
2023-03-14T21:27:25.858Z,3.80
2023-03-14T21:29:53.944Z,3.70
2023-03-14T21:32:22.132Z,3.70
2023-03-14T21:34:52.671Z,3.70
2023-03-14T21:37:22.361Z,3.70
2023-03-14T21:39:50.371Z,3.70
2023-03-14T21:42:18.546Z,3.70
2023-03-14T21:44:48.629Z,3.70
2023-03-14T21:47:17.390Z,3.70
2023-03-14T21:49:45.731Z,3.70
2023-03-14T21:52:15.649Z,3.70
2023-03-14T21:54:43.990Z,3.60
2023-03-14T21:57:14.601Z,3.60
2023-03-14T21:59:43.622Z,3.50
2023-03-14T22:02:16.646Z,3.60
2023-03-14T22:04:45.036Z,3.60
2023-03-14T22:07:18.901Z,3.60
2023-03-14T22:09:51.744Z,3.50
2023-03-14T22:12:20.076Z,3.60
2023-03-14T22:14:49.180Z,3.60
2023-03-14T22:17:19.894Z,3.60
2023-03-14T22:19:47.985Z,3.60
2023-03-14T22:22:17.404Z,3.60
2023-03-14T22:24:45.503Z,3.60
2023-03-14T22:27:13.938Z,3.50
2023-03-14T22:29:41.977Z,3.50
2023-03-14T22:32:11.823Z,3.50
2023-03-14T22:34:39.918Z,3.50
2023-03-14T22:37:08.673Z,3.40
2023-03-14T22:39:38.250Z,3.50
2023-03-14T22:42:12.213Z,3.50
2023-03-14T22:44:40.377Z,3.60
2023-03-14T22:47:08.716Z,3.60
2023-03-14T22:49:36.762Z,3.60
2023-03-14T22:52:07.826Z,3.60
2023-03-14T22:54:37.440Z,3.60
2023-03-14T22:57:05.694Z,3.60
2023-03-14T22:59:33.698Z,3.50
2023-03-14T23:02:01.702Z,3.50
2023-03-14T23:04:29.739Z,3.40
2023-03-14T23:06:57.739Z,3.50
2023-03-14T23:09:25.745Z,3.40
2023-03-14T23:11:55.764Z,3.40
2023-03-14T23:14:23.972Z,3.30
2023-03-14T23:16:52.143Z,3.30
2023-03-14T23:19:25.847Z,3.20
2023-03-14T23:21:54.038Z,3.20
2023-03-14T23:24:22.522Z,3.10
2023-03-14T23:26:51.707Z,3.10
2023-03-14T23:29:21.103Z,3.10
2023-03-14T23:31:49.301Z,3.10
2023-03-14T23:34:17.343Z,3.10
2023-03-14T23:36:45.948Z,3.10
2023-03-14T23:39:13.944Z,3.00
2023-03-14T23:41:41.927Z,3.00
2023-03-14T23:44:13.133Z,2.90
2023-03-14T23:46:42.601Z,2.80
2023-03-14T23:49:13.121Z,2.70
2023-03-14T23:51:41.148Z,2.70
2023-03-14T23:54:09.472Z,2.60
2023-03-14T23:56:37.578Z,2.50
2023-03-14T23:59:05.690Z,2.50
